Capitol Logistics 327


KCVG
Cincinnati/Northern Kentucky International Airport
Covington, Kentucky, US
KMIA
Miami International Airport
Miami, Florida, US

Activity Log

Date Flight Route Aircraft Duration
01/28/2020 CPX327 KENLN4 HYK VXV J43 ATL J89 OTK JUULI SSCOT5 B763 2h 20m
10/17/2019 CPX327 KENLN4 HYK VXV J43 ATL J89 OTK JUULI SSCOT5 B763 2h 25m
07/26/2019 CPX327 HYK VXV J46 AMG J45 OMN B763 2h 10m
12/23/2018 CPX335 KENLN4 HYK VXV J43 ATL J89 OTK JUULI SSCOT5 B752 2h 33m
11/07/2018 CPX335 KENLN4 HYK VXV J43 ATL J89 OTK JUULI SSCOT5 B752 2h 20m

Route Details

Aircraft Information
Primary: Boeing 767-300BDSF
Backup: Not Available
Route Data
Distance: 898nm
Sched. Duration: 2h 04m
Avg. Duration: 2h 21m (+17m)
Times Flown: 5
Recm'd Route: KENLN4 HYK VXV J43 ATL J89 OTK JUULI SSCOT5
Planned Altitude: 35,000ft
Origin Wx: KCVG 231152Z 19009KT 10SM SCT100 M01/M08 A3017 RMK AO2 SLP221 T10111083 10011 21022 58002
Dest. Wx: KMIA 231153Z 36004KT 10SM FEW035 18/14 A3017 RMK AO2 SLP217 60000 70004 T01830139 10200 20178 53008
Notes:

Financial History
Total Freight: 394,669lbs
Average Load: 78,934lbs/flt
Fuel Used: 116,586lbs
Avg. Fuel Used: 23,317lbs/flt
Fuel Expense: $108,425
Avg. Fuel Expense: $21,685
Avg. Fuel Cost: $0.93/lbs
Total Gross Income: $516,359
Pilot Pay: $825
Total Expenses: $56,027
Total Revenue: $349,827
Average Revenue: $103,271.72